createdAt,value
2022-11-16T00:01:26.881Z,80.60
2022-11-16T00:03:57.734Z,89.00
2022-11-16T00:06:28.710Z,90.40
2022-11-16T00:09:21.457Z,66.00
2022-11-16T00:11:56.281Z,61.20
2022-11-16T00:14:28.541Z,63.50
2022-11-16T00:17:04.129Z,62.60
2022-11-16T00:19:35.006Z,63.50
2022-11-16T00:22:05.639Z,63.80
2022-11-16T00:24:35.476Z,59.00
2022-11-16T00:27:08.516Z,59.80
2022-11-16T00:29:39.666Z,65.30
2022-11-16T00:32:08.572Z,67.60
2022-11-16T00:34:37.759Z,65.00
2022-11-16T00:37:06.840Z,74.50
2022-11-16T00:39:35.761Z,78.20
2022-11-16T00:42:04.541Z,73.10
2022-11-16T00:44:32.896Z,63.20
2022-11-16T00:47:01.584Z,59.50
2022-11-16T00:49:30.022Z,62.30
2022-11-16T00:51:58.752Z,57.20
2022-11-16T00:54:27.361Z,61.00
2022-11-16T00:56:55.500Z,60.30
2022-11-16T00:59:24.604Z,59.50
2022-11-16T01:01:54.970Z,61.80
2022-11-16T01:04:24.075Z,64.00
2022-11-16T01:06:52.224Z,64.90
2022-11-16T01:09:20.477Z,60.60
2022-11-16T01:12:08.010Z,65.60
2022-11-16T01:14:38.183Z,65.00
2022-11-16T01:17:07.316Z,65.30
2022-11-16T01:19:36.669Z,63.70
2022-11-16T01:22:05.423Z,61.10
2022-11-16T01:24:33.701Z,70.90
2022-11-16T01:27:01.974Z,73.20
2022-11-16T01:29:33.256Z,66.40
2022-11-16T01:32:02.915Z,69.20
2022-11-16T01:34:33.068Z,66.30
2022-11-16T01:37:07.044Z,59.10
2022-11-16T01:39:38.604Z,64.10
2022-11-16T01:42:14.366Z,61.80
2022-11-16T01:44:42.524Z,60.60
2022-11-16T01:47:17.877Z,64.30
2022-11-16T01:49:48.816Z,59.10
2022-11-16T01:52:22.758Z,56.30
2022-11-16T01:54:53.868Z,58.40
2022-11-16T01:57:33.017Z,61.90
2022-11-16T02:00:11.230Z,61.50
2022-11-16T02:02:44.905Z,59.00
2022-11-16T02:05:42.471Z,61.90
2022-11-16T02:08:53.939Z,59.60
2022-11-16T02:11:22.532Z,61.30
2022-11-16T02:14:20.339Z,65.90
2022-11-16T02:17:03.431Z,68.80
2022-11-16T02:19:35.408Z,60.50
2022-11-16T02:22:53.352Z,57.10
2022-11-16T02:26:02.876Z,53.50
2022-11-16T02:28:46.118Z,55.40
2022-11-16T02:31:23.507Z,60.10
2022-11-16T02:33:54.650Z,62.70
2022-11-16T02:36:25.487Z,63.10
2022-11-16T02:39:05.142Z,65.20
2022-11-16T02:41:44.364Z,56.90
2022-11-16T02:44:20.002Z,61.50
2022-11-16T02:46:53.752Z,60.50
2022-11-16T02:49:25.352Z,58.50
2022-11-16T02:51:54.872Z,61.70
2022-11-16T02:54:24.885Z,67.70
2022-11-16T02:57:17.636Z,69.50
2022-11-16T02:59:50.631Z,64.50
2022-11-16T03:02:27.405Z,66.20
2022-11-16T03:05:02.740Z,72.80
2022-11-16T03:07:42.287Z,72.60
2022-11-16T03:10:11.787Z,69.80
2022-11-16T03:12:41.184Z,67.20
2022-11-16T03:15:12.909Z,67.20
2022-11-16T03:17:46.251Z,68.70
2022-11-16T03:20:22.917Z,66.00
2022-11-16T03:22:57.260Z,65.00
2022-11-16T03:25:31.141Z,66.50
2022-11-16T03:28:23.581Z,62.30
2022-11-16T03:31:01.289Z,64.50
2022-11-16T03:33:44.618Z,56.30
2022-11-16T03:36:27.228Z,60.50
2022-11-16T03:39:01.641Z,59.20
2022-11-16T03:41:31.360Z,46.70
2022-11-16T03:44:01.186Z,50.60
2022-11-16T03:46:29.505Z,62.30
2022-11-16T03:48:59.253Z,58.40
2022-11-16T03:51:29.794Z,62.40
2022-11-16T03:53:58.240Z,64.40
2022-11-16T03:56:26.647Z,51.80
2022-11-16T03:58:54.767Z,46.90
2022-11-16T04:01:23.241Z,54.30
2022-11-16T04:03:51.688Z,54.30
2022-11-16T04:06:39.503Z,54.10
2022-11-16T04:09:10.618Z,48.70
2022-11-16T04:11:58.222Z,55.50
2022-11-16T04:14:46.539Z,53.40
2022-11-16T04:17:37.843Z,40.40
2022-11-16T04:20:25.586Z,52.30
2022-11-16T04:23:22.291Z,54.50
2022-11-16T04:25:51.873Z,48.10
2022-11-16T04:28:27.374Z,51.00
2022-11-16T04:31:18.695Z,53.10
2022-11-16T04:34:11.653Z,38.60
2022-11-16T04:37:01.720Z,49.30
2022-11-16T04:39:30.513Z,50.20
2022-11-16T04:42:19.352Z,50.70
2022-11-16T04:45:07.624Z,48.50
2022-11-16T04:47:49.921Z,47.00
2022-11-16T04:50:19.949Z,51.90
2022-11-16T04:52:48.809Z,38.10
2022-11-16T04:55:18.130Z,44.30
2022-11-16T04:57:48.272Z,31.40
2022-11-16T05:00:18.274Z,32.50
2022-11-16T05:02:46.761Z,38.00
2022-11-16T05:05:15.186Z,38.90
2022-11-16T05:07:45.249Z,41.80
2022-11-16T05:10:19.880Z,35.80
2022-11-16T05:12:49.380Z,37.20
2022-11-16T05:15:20.040Z,40.00
2022-11-16T05:17:50.136Z,27.80
2022-11-16T05:20:40.146Z,27.30
2022-11-16T05:23:28.578Z,35.60
2022-11-16T05:25:58.286Z,33.30
2022-11-16T05:28:27.692Z,28.50
2022-11-16T05:30:56.164Z,33.90
2022-11-16T05:33:24.951Z,30.90
2022-11-16T05:35:53.747Z,34.70
2022-11-16T05:38:22.850Z,34.20
2022-11-16T05:40:53.970Z,25.30
2022-11-16T05:43:22.767Z,33.70
2022-11-16T05:46:01.393Z,31.90
2022-11-16T05:48:29.806Z,35.00
2022-11-16T05:50:59.959Z,31.20
2022-11-16T05:53:29.307Z,32.20
2022-11-16T05:55:59.144Z,32.30
2022-11-16T05:58:28.289Z,33.10
2022-11-16T06:00:58.514Z,27.60
2022-11-16T06:03:30.267Z,31.50
2022-11-16T06:06:00.054Z,33.30
2022-11-16T06:08:31.227Z,30.90
2022-11-16T06:11:06.447Z,36.30
2022-11-16T06:13:37.716Z,35.40
2022-11-16T06:16:09.059Z,32.60
2022-11-16T06:18:44.156Z,33.10
2022-11-16T06:21:15.160Z,32.90
2022-11-16T06:23:44.017Z,35.10
2022-11-16T06:26:12.842Z,34.20
2022-11-16T06:28:42.209Z,35.40
2022-11-16T06:31:10.489Z,37.00
2022-11-16T06:33:42.356Z,38.30
2022-11-16T06:36:21.617Z,36.60
2022-11-16T06:38:51.420Z,38.20
2022-11-16T06:41:20.939Z,41.60
2022-11-16T06:43:50.625Z,41.50
2022-11-16T06:46:20.561Z,37.90
2022-11-16T06:48:49.324Z,41.20
2022-11-16T06:51:19.251Z,40.80
2022-11-16T06:53:48.234Z,41.30
2022-11-16T06:56:16.739Z,43.60
2022-11-16T06:58:53.220Z,40.10
2022-11-16T07:01:22.521Z,41.30
2022-11-16T07:03:51.216Z,41.10
2022-11-16T07:06:19.528Z,40.00
2022-11-16T07:08:48.225Z,40.80
2022-11-16T07:11:20.338Z,41.60
2022-11-16T07:13:49.587Z,40.10
2022-11-16T07:16:18.822Z,41.50
2022-11-16T07:18:53.788Z,42.00
2022-11-16T07:21:47.518Z,36.30
2022-11-16T07:24:20.893Z,40.70
2022-11-16T07:26:49.685Z,37.80
2022-11-16T07:29:22.382Z,36.90
2022-11-16T07:32:08.584Z,34.30
2022-11-16T07:35:07.568Z,35.60
2022-11-16T07:37:37.793Z,41.10
2022-11-16T07:40:07.464Z,33.70
2022-11-16T07:42:36.485Z,40.50
2022-11-16T07:45:21.547Z,38.90
2022-11-16T07:47:54.651Z,38.30
2022-11-16T07:50:37.054Z,38.10
2022-11-16T07:53:08.145Z,39.50
2022-11-16T07:55:36.661Z,38.50
2022-11-16T07:58:05.849Z,38.80
2022-11-16T08:00:34.900Z,35.60
2022-11-16T08:03:09.167Z,35.00
2022-11-16T08:05:38.055Z,42.50
2022-11-16T08:08:07.101Z,42.10
2022-11-16T08:10:37.164Z,37.20
2022-11-16T08:13:06.977Z,39.00
2022-11-16T08:15:36.881Z,36.20
2022-11-16T08:18:07.342Z,42.40
2022-11-16T08:20:37.036Z,42.80
2022-11-16T08:23:05.922Z,46.60
2022-11-16T08:25:35.930Z,42.20
2022-11-16T08:28:04.739Z,36.30
2022-11-16T08:30:33.461Z,36.90
2022-11-16T08:33:03.877Z,40.10
2022-11-16T08:35:36.097Z,37.50
2022-11-16T08:38:06.628Z,37.60
2022-11-16T08:40:38.182Z,35.30
2022-11-16T08:43:07.080Z,38.90
2022-11-16T08:45:36.108Z,43.20
2022-11-16T08:48:05.894Z,37.40
2022-11-16T08:51:02.410Z,42.50
2022-11-16T08:53:27.216Z,40.10
2022-11-16T08:55:55.695Z,39.90
2022-11-16T08:58:24.481Z,43.60
2022-11-16T09:00:53.010Z,32.40
2022-11-16T09:03:21.859Z,43.60
2022-11-16T09:05:50.274Z,43.60
2022-11-16T09:08:18.870Z,43.10
2022-11-16T09:10:47.285Z,45.20
2022-11-16T09:13:15.669Z,28.60
2022-11-16T09:15:44.989Z,38.70
2022-11-16T09:18:13.577Z,40.70
2022-11-16T09:20:45.716Z,27.80
2022-11-16T09:23:14.404Z,41.10
2022-11-16T09:25:45.402Z,17.30
2022-11-16T09:28:14.230Z,41.80
2022-11-16T09:30:44.372Z,39.90
2022-11-16T09:33:13.485Z,45.40
2022-11-16T09:35:42.454Z,42.00
2022-11-16T09:38:12.713Z,42.30
2022-11-16T09:40:47.407Z,35.40
2022-11-16T09:43:35.424Z,39.70
2022-11-16T09:46:22.157Z,27.20
2022-11-16T09:48:51.499Z,30.60
2022-11-16T09:51:23.812Z,41.40
2022-11-16T09:54:06.432Z,44.00
2022-11-16T09:56:39.385Z,15.60
2022-11-16T09:59:29.524Z,25.30
2022-11-16T10:02:14.781Z,20.30
2022-11-16T10:04:58.194Z,25.90
2022-11-16T10:07:33.617Z,36.20
2022-11-16T10:10:02.548Z,28.10
2022-11-16T10:12:58.987Z,35.20
2022-11-16T10:16:05.249Z,28.80
2022-11-16T10:18:39.219Z,28.50
2022-11-16T10:21:33.240Z,33.90
2022-11-16T10:24:29.831Z,30.40
2022-11-16T10:27:24.375Z,20.50
2022-11-16T10:30:11.383Z,30.90
2022-11-16T10:33:00.784Z,36.30
2022-11-16T10:35:54.253Z,35.50
2022-11-16T10:38:29.037Z,24.90
2022-11-16T10:41:18.630Z,28.40
2022-11-16T10:43:48.654Z,28.20
2022-11-16T10:46:44.473Z,28.30
2022-11-16T10:49:15.830Z,23.80
2022-11-16T10:51:44.516Z,18.70
2022-11-16T10:54:14.428Z,15.60
2022-11-16T10:56:45.888Z,23.50
2022-11-16T10:59:18.375Z,20.40
2022-11-16T11:01:51.750Z,22.20
2022-11-16T11:04:20.240Z,33.10
2022-11-16T11:06:56.882Z,35.70
2022-11-16T11:09:35.307Z,23.40
2022-11-16T11:12:40.069Z,29.40
2022-11-16T11:15:11.731Z,29.40
2022-11-16T11:17:43.023Z,23.40
2022-11-16T11:20:17.616Z,32.10
2022-11-16T11:22:58.064Z,28.70
2022-11-16T11:25:38.862Z,29.00
2022-11-16T11:28:25.947Z,35.40
2022-11-16T11:31:04.923Z,31.30
2022-11-16T11:33:52.547Z,31.20
2022-11-16T11:36:48.151Z,33.10
2022-11-16T11:39:16.451Z,33.70
2022-11-16T11:41:47.044Z,31.90
2022-11-16T11:44:18.203Z,29.70
2022-11-16T11:47:50.252Z,33.20
2022-11-16T11:50:11.490Z,28.00
2022-11-16T11:52:47.344Z,29.90
2022-11-16T11:55:18.184Z,28.50
2022-11-16T11:57:50.348Z,26.00
2022-11-16T12:00:19.039Z,31.30
2022-11-16T12:03:27.166Z,32.40
2022-11-16T12:06:32.290Z,31.00
2022-11-16T12:09:04.360Z,27.40
2022-11-16T12:11:51.678Z,23.90
2022-11-16T12:14:58.356Z,24.30
2022-11-16T12:17:36.385Z,17.30
2022-11-16T12:20:29.520Z,17.30
2022-11-16T12:23:37.287Z,24.50
2022-11-16T12:26:32.256Z,27.60
2022-11-16T12:29:01.115Z,24.00
2022-11-16T12:32:05.076Z,26.10
2022-11-16T12:35:12.417Z,23.30
2022-11-16T12:37:55.858Z,26.90
2022-11-16T12:40:59.549Z,21.80
2022-11-16T12:43:51.698Z,20.40
2022-11-16T12:46:51.312Z,22.80
2022-11-16T12:49:53.331Z,18.60
2022-11-16T12:52:25.646Z,20.20
2022-11-16T12:58:10.531Z,31.80
2022-11-16T13:00:56.233Z,23.20
2022-11-16T13:03:55.518Z,27.50
2022-11-16T13:06:33.225Z,32.60
2022-11-16T13:09:38.966Z,27.80
2022-11-16T13:12:14.446Z,30.20
2022-11-16T13:14:45.350Z,23.90
2022-11-16T13:17:21.646Z,31.60
2022-11-16T13:20:15.250Z,36.50
2022-11-16T13:22:53.913Z,37.40
2022-11-16T13:26:01.193Z,32.90
2022-11-16T13:28:48.762Z,30.40
2022-11-16T13:31:29.007Z,28.80
2022-11-16T13:34:13.301Z,30.90
2022-11-16T13:36:45.508Z,30.30
2022-11-16T13:39:23.155Z,29.80
2022-11-16T13:42:14.200Z,30.40
2022-11-16T13:44:47.407Z,25.90
2022-11-16T13:47:27.839Z,24.80
2022-11-16T13:49:59.838Z,25.80
2022-11-16T13:53:23.423Z,21.90
2022-11-16T13:55:38.704Z,23.30
2022-11-16T13:58:11.555Z,22.30
2022-11-16T14:00:42.049Z,19.50
2022-11-16T14:03:16.913Z,22.10
2022-11-16T14:05:46.412Z,19.20
2022-11-16T14:08:27.628Z,18.90
2022-11-16T14:10:56.087Z,16.00
2022-11-16T14:13:30.932Z,24.00
2022-11-16T14:16:21.726Z,19.80
2022-11-16T14:19:03.062Z,21.70
2022-11-16T14:21:42.709Z,23.30
2022-11-16T14:24:30.279Z,22.20
2022-11-16T14:27:02.023Z,20.00
2022-11-16T14:29:58.541Z,28.60
2022-11-16T14:32:31.859Z,23.40
2022-11-16T14:35:05.274Z,24.10
2022-11-16T14:37:40.755Z,24.50
2022-11-16T14:40:18.227Z,24.40
2022-11-16T14:43:16.487Z,22.50
2022-11-16T14:46:09.736Z,23.90
2022-11-16T14:48:47.211Z,26.40
2022-11-16T14:51:27.717Z,26.40
2022-11-16T14:54:01.428Z,31.00
2022-11-16T14:56:31.414Z,30.90
2022-11-16T14:59:02.168Z,29.70
2022-11-16T15:01:37.082Z,29.90
2022-11-16T15:04:11.516Z,32.80
2022-11-16T15:07:02.819Z,27.80
2022-11-16T15:09:38.876Z,26.40
2022-11-16T15:12:34.588Z,28.10
2022-11-16T15:15:17.484Z,23.80
2022-11-16T15:18:05.591Z,22.50
2022-11-16T15:20:54.532Z,21.50
2022-11-16T15:24:23.459Z,16.60
2022-11-16T15:26:44.549Z,24.20
2022-11-16T15:29:18.408Z,26.50
2022-11-16T15:31:49.512Z,24.50
2022-11-16T15:34:20.210Z,22.50
2022-11-16T15:36:49.281Z,25.50
2022-11-16T15:39:28.588Z,19.00
2022-11-16T15:42:03.261Z,11.70
2022-11-16T15:44:33.994Z,16.90
2022-11-16T15:47:05.140Z,20.60
2022-11-16T15:49:40.811Z,19.10
2022-11-16T15:52:15.125Z,10.60
2022-11-16T15:55:10.530Z,14.80
2022-11-16T15:57:46.622Z,15.00
2022-11-16T16:00:28.293Z,11.80
2022-11-16T16:03:28.945Z,16.70
2022-11-16T16:06:20.294Z,14.70
2022-11-16T16:09:05.651Z,15.50
2022-11-16T16:11:42.813Z,11.90
2022-11-16T16:14:32.826Z,14.60
2022-11-16T16:17:27.999Z,18.10
2022-11-16T16:20:08.678Z,16.10
2022-11-16T16:22:54.963Z,16.30
2022-11-16T16:25:39.484Z,15.20
2022-11-16T16:28:16.485Z,10.60
2022-11-16T16:30:51.155Z,11.10
2022-11-16T16:33:30.053Z,16.60
2022-11-16T16:36:06.906Z,15.10
2022-11-16T16:38:47.511Z,14.70
2022-11-16T16:41:24.757Z,13.60
2022-11-16T16:43:59.144Z,13.70
2022-11-16T16:46:37.348Z,13.50
2022-11-16T16:49:11.763Z,14.60
2022-11-16T16:51:51.768Z,9.00
2022-11-16T16:54:25.843Z,13.90
2022-11-16T16:57:03.634Z,11.20
2022-11-16T16:59:35.740Z,14.20
2022-11-16T17:02:16.009Z,13.10
2022-11-16T17:04:50.876Z,14.30
2022-11-16T17:07:27.741Z,7.30
2022-11-16T17:10:06.235Z,8.30
2022-11-16T17:12:44.227Z,12.10
2022-11-16T17:15:19.613Z,7.90
2022-11-16T17:17:55.708Z,14.20
2022-11-16T17:20:32.634Z,10.30
2022-11-16T17:23:07.801Z,13.60
2022-11-16T17:25:41.768Z,11.70
2022-11-16T17:28:16.169Z,14.70
2022-11-16T17:30:51.038Z,11.80
2022-11-16T17:33:25.360Z,13.90
2022-11-16T17:36:03.184Z,15.90
2022-11-16T17:38:43.345Z,16.00
2022-11-16T17:41:28.965Z,15.50
2022-11-16T17:44:10.230Z,16.60
2022-11-16T17:46:46.540Z,16.70
2022-11-16T17:49:22.468Z,16.30
2022-11-16T17:52:02.149Z,10.60
2022-11-16T17:54:39.147Z,16.80
2022-11-16T17:57:11.899Z,12.10
2022-11-16T17:59:47.362Z,8.70
2022-11-16T18:02:26.664Z,9.50
2022-11-16T18:05:11.183Z,9.00
2022-11-16T18:07:51.339Z,9.20
2022-11-16T18:10:24.279Z,7.20
2022-11-16T18:12:54.110Z,11.20
2022-11-16T18:15:30.814Z,9.80
2022-11-16T18:18:00.079Z,8.30
2022-11-16T18:20:29.624Z,11.20
2022-11-16T18:22:59.128Z,8.40
2022-11-16T18:25:28.928Z,9.90
2022-11-16T18:27:57.990Z,11.10
2022-11-16T18:30:26.984Z,10.40
2022-11-16T18:32:56.226Z,8.80
2022-11-16T18:35:26.881Z,7.40
2022-11-16T18:37:56.532Z,10.90
2022-11-16T18:40:25.210Z,7.90
2022-11-16T18:42:54.330Z,7.30
2022-11-16T18:45:23.610Z,9.50
2022-11-16T18:47:52.295Z,6.30
2022-11-16T18:50:26.733Z,6.80
2022-11-16T18:52:59.744Z,6.70
2022-11-16T18:55:31.709Z,7.10
2022-11-16T18:58:04.520Z,6.20
2022-11-16T19:00:42.859Z,9.00
2022-11-16T19:03:13.865Z,4.60
2022-11-16T19:05:45.390Z,8.50
2022-11-16T19:08:16.239Z,8.00
2022-11-16T19:10:45.483Z,4.90
2022-11-16T19:13:17.013Z,4.70
2022-11-16T19:15:50.661Z,5.30
2022-11-16T19:18:22.033Z,5.40
2022-11-16T19:20:51.661Z,4.80
2022-11-16T19:23:22.252Z,5.90
2022-11-16T19:26:01.341Z,5.90
2022-11-16T19:28:37.352Z,4.10
2022-11-16T19:31:09.693Z,5.00
2022-11-16T19:33:40.251Z,6.50
2022-11-16T19:36:13.597Z,7.00
2022-11-16T19:38:45.443Z,6.90
2022-11-16T19:41:21.294Z,7.70
2022-11-16T19:43:54.585Z,8.40
2022-11-16T19:46:29.194Z,6.40
2022-11-16T19:49:01.508Z,7.30
2022-11-16T19:51:34.595Z,7.20
2022-11-16T19:54:06.017Z,6.00
2022-11-16T19:56:36.022Z,5.70
2022-11-16T19:59:05.702Z,6.70
2022-11-16T20:01:36.510Z,6.70
2022-11-16T20:04:06.807Z,5.50
2022-11-16T20:06:39.422Z,6.20
2022-11-16T20:09:12.560Z,6.70
2022-11-16T20:11:43.893Z,7.50
2022-11-16T20:14:15.278Z,8.20
2022-11-16T20:16:50.679Z,8.60
2022-11-16T20:19:21.143Z,7.40
2022-11-16T20:21:54.239Z,9.50
2022-11-16T20:24:24.542Z,7.80
2022-11-16T20:26:56.182Z,9.10
2022-11-16T20:29:32.463Z,9.60
2022-11-16T20:32:07.591Z,5.50
2022-11-16T20:34:42.780Z,3.60
2022-11-16T20:37:13.949Z,5.30
2022-11-16T20:39:46.592Z,7.80
2022-11-16T20:42:17.034Z,6.70
2022-11-16T20:44:47.261Z,7.80
2022-11-16T20:47:16.809Z,7.70
2022-11-16T20:49:46.488Z,8.30
2022-11-16T20:52:16.855Z,7.00
2022-11-16T20:54:46.340Z,5.80
2022-11-16T20:57:16.503Z,5.30
2022-11-16T20:59:45.955Z,7.90
2022-11-16T21:02:15.871Z,8.50
2022-11-16T21:04:46.301Z,7.60
2022-11-16T21:07:21.194Z,8.30
2022-11-16T21:10:11.597Z,7.30
2022-11-16T21:13:01.742Z,9.90
2022-11-16T21:15:31.422Z,6.80
2022-11-16T21:18:01.125Z,6.70
2022-11-16T21:20:30.083Z,8.20
2022-11-16T21:22:59.209Z,6.90
2022-11-16T21:25:28.330Z,11.90
2022-11-16T21:27:57.935Z,10.80
2022-11-16T21:30:27.640Z,8.20
2022-11-16T21:32:57.882Z,6.30
2022-11-16T21:35:27.473Z,8.20
2022-11-16T21:37:56.887Z,7.90
2022-11-16T21:40:26.479Z,8.70
2022-11-16T21:42:56.371Z,6.90
2022-11-16T21:45:26.371Z,7.20
2022-11-16T21:47:56.161Z,9.30
2022-11-16T21:50:31.508Z,10.40
2022-11-16T21:53:02.032Z,9.00
2022-11-16T21:55:31.722Z,8.50
2022-11-16T21:58:03.697Z,7.10
2022-11-16T22:00:32.280Z,5.40
2022-11-16T22:03:01.711Z,8.10
2022-11-16T22:05:49.974Z,9.00
2022-11-16T22:08:19.662Z,9.40
2022-11-16T22:10:52.906Z,11.50
2022-11-16T22:13:22.825Z,11.10
2022-11-16T22:15:52.546Z,10.70
2022-11-16T22:18:22.216Z,8.40
2022-11-16T22:20:55.388Z,8.20
2022-11-16T22:23:29.216Z,7.30
2022-11-16T22:26:12.249Z,8.20
2022-11-16T22:28:44.420Z,8.40
2022-11-16T22:31:15.636Z,7.80
2022-11-16T22:33:45.553Z,8.90
2022-11-16T22:36:15.394Z,6.10
2022-11-16T22:38:44.487Z,6.70
2022-11-16T22:41:13.470Z,7.30
2022-11-16T22:43:42.122Z,7.70
2022-11-16T22:46:11.525Z,6.20
2022-11-16T22:48:41.474Z,7.80
2022-11-16T22:51:28.239Z,7.70
2022-11-16T22:53:59.510Z,7.30
2022-11-16T22:56:30.952Z,6.20
2022-11-16T22:59:02.703Z,7.10
2022-11-16T23:01:32.783Z,6.40
2022-11-16T23:04:03.123Z,6.00
2022-11-16T23:06:33.130Z,7.50
2022-11-16T23:09:01.886Z,8.10
2022-11-16T23:11:49.500Z,7.70
2022-11-16T23:14:37.116Z,7.70
2022-11-16T23:17:06.831Z,8.10
2022-11-16T23:19:54.246Z,8.80
2022-11-16T23:22:41.152Z,7.10
2022-11-16T23:25:30.524Z,5.70
2022-11-16T23:28:00.731Z,5.90
2022-11-16T23:30:29.124Z,6.50
2022-11-16T23:32:57.457Z,8.30
2022-11-16T23:35:25.599Z,6.20
2022-11-16T23:37:58.973Z,7.10
2022-11-16T23:40:30.657Z,7.20
2022-11-16T23:43:18.156Z,7.30
2022-11-16T23:45:46.381Z,7.20
2022-11-16T23:48:16.693Z,7.80
2022-11-16T23:50:46.171Z,7.40
2022-11-16T23:53:15.651Z,7.90
2022-11-16T23:55:43.942Z,9.20
2022-11-16T23:58:15.048Z,6.80
